Time;durP1;ratioP1;P1;durP2;ratioP2;P2;SDS_P1;SDS_P2;PMS_P1;PMS_P2;Temp;Humidity;BMP_temperature;BMP_pressure;BME280_temperature;BME280_humidity;BME280_pressure;Samples;Min_cycle;Max_cycle;Signal;HPM_P1;HPM_P2
2022/10/07 00:00:12;;;;;;;;;;;12.00;91.10;;;;;;5085528;28;19927;-70
2022/10/07 00:02:39;;;;;;;;;;;12.00;91.10;;;;;;5083346;28;19916;-70
2022/10/07 00:05:05;;;;;;;;;;;12.00;91.10;;;;;;5084334;28;19920;-71
2022/10/07 00:07:30;;;;;;;;;;;11.90;91.10;;;;;;5084032;28;19968;-70
2022/10/07 00:09:55;;;;;;;;;;;12.00;91.10;;;;;;5081472;28;19952;-70
2022/10/07 00:12:22;;;;;;;;;;;11.90;91.10;;;;;;5081522;28;20533;-70
2022/10/07 00:14:47;;;;;;;;;;;11.90;91.10;;;;;;5085093;28;20397;-70
2022/10/07 00:17:12;;;;;;;;;;;11.90;91.10;;;;;;5083845;28;19916;-70
2022/10/07 00:19:38;;;;;;;;;;;11.90;91.10;;;;;;5081022;28;19920;-70
2022/10/07 00:22:03;;;;;;;;;;;11.90;91.10;;;;;;5086288;28;19912;-70
2022/10/07 00:24:29;;;;;;;;;;;11.90;91.10;;;;;;5081437;28;20357;-70
2022/10/07 00:26:54;;;;;;;;;;;11.90;91.10;;;;;;5084241;28;20281;-70
2022/10/07 00:29:20;;;;;;;;;;;11.90;91.10;;;;;;5082286;28;19939;-70
2022/10/07 00:31:46;;;;;;;;;;;11.90;91.10;;;;;;5084683;28;19916;-70
2022/10/07 00:34:11;;;;;;;;;;;11.90;91.10;;;;;;5080412;28;19920;-70
2022/10/07 00:36:37;;;;;;;;;;;11.90;91.10;;;;;;5084178;28;20347;-70
2022/10/07 00:39:07;;;;;;;;;;;11.90;91.10;;;;;;5080378;28;20349;-70
2022/10/07 00:41:35;;;;;;;;;;;11.80;91.10;;;;;;5084292;28;20006;-70
2022/10/07 00:44:30;;;;;;;;;;;11.80;91.10;;;;;;5064253;28;20353;-70
2022/10/07 00:47:10;;;;;;;;;;;11.80;91.10;;;;;;5085738;28;20677;-70
2022/10/07 00:49:39;;;;;;;;;;;11.80;91.10;;;;;;5081938;28;19920;-70
2022/10/07 00:52:05;;;;;;;;;;;11.80;91.10;;;;;;5085249;28;19908;-70
2022/10/07 00:54:30;;;;;;;;;;;11.80;91.10;;;;;;5080086;28;19920;-70
2022/10/07 00:56:58;;;;;;;;;;;11.80;91.10;;;;;;5084842;28;19961;-70
2022/10/07 00:59:23;;;;;;;;;;;11.80;91.20;;;;;;5081371;28;19916;-70
2022/10/07 01:01:49;;;;;;;;;;;11.80;91.20;;;;;;5079941;28;19919;-70
2022/10/07 01:04:16;;;;;;;;;;;11.80;91.20;;;;;;5077773;28;20415;-70
2022/10/07 01:06:41;;;;;;;;;;;11.70;91.10;;;;;;5081522;28;19920;-70
2022/10/07 01:09:08;;;;;;;;;;;11.80;91.20;;;;;;5084032;28;19912;-70
2022/10/07 01:11:41;;;;;;;;;;;11.70;91.20;;;;;;5079356;28;19973;-70
2022/10/07 01:14:12;;;;;;;;;;;11.70;91.10;;;;;;5080073;28;20284;-70
2022/10/07 01:16:53;;;;;;;;;;;11.70;91.10;;;;;;5080143;28;19916;-70
2022/10/07 01:19:24;;;;;;;;;;;11.70;91.10;;;;;;5082161;28;19954;-70
2022/10/07 01:21:53;;;;;;;;;;;11.70;91.20;;;;;;5082433;28;19923;-70
2022/10/07 01:24:24;;;;;;;;;;;11.70;91.20;;;;;;5083734;28;19912;-70
2022/10/07 01:26:56;;;;;;;;;;;11.70;91.10;;;;;;5061767;28;19920;-70
2022/10/07 01:29:24;;;;;;;;;;;11.70;91.20;;;;;;5087527;28;19916;-70
2022/10/07 01:32:11;;;;;;;;;;;11.70;91.20;;;;;;5085283;28;20407;-70
2022/10/07 01:34:38;;;;;;;;;;;11.70;91.20;;;;;;5084475;28;20296;-70
2022/10/07 01:37:05;;;;;;;;;;;11.60;91.10;;;;;;5085761;28;20586;-70
2022/10/07 01:39:33;;;;;;;;;;;11.60;91.20;;;;;;5086662;28;19915;-70
2022/10/07 01:41:58;;;;;;;;;;;11.60;91.10;;;;;;5083043;28;19923;-70
2022/10/07 01:44:27;;;;;;;;;;;11.60;91.10;;;;;;5088464;28;19912;-70
2022/10/07 01:46:52;;;;;;;;;;;11.60;91.20;;;;;;5086476;28;19920;-70
2022/10/07 01:49:17;;;;;;;;;;;11.60;91.20;;;;;;5088232;28;19919;-70
2022/10/07 01:51:49;;;;;;;;;;;11.60;91.20;;;;;;5083736;28;20693;-70
2022/10/07 01:54:20;;;;;;;;;;;11.60;91.20;;;;;;5088801;28;19916;-70
2022/10/07 01:57:01;;;;;;;;;;;11.60;91.20;;;;;;5085605;28;20631;-70
2022/10/07 01:59:33;;;;;;;;;;;11.60;91.20;;;;;;5087473;28;20618;-70
2022/10/07 02:01:58;;;;;;;;;;;11.60;91.20;;;;;;5082352;28;19917;-70
2022/10/07 02:04:33;;;;;;;;;;;11.60;91.20;;;;;;5087135;28;19919;-71
2022/10/07 02:07:04;;;;;;;;;;;11.60;91.10;;;;;;5067770;28;19920;-70
2022/10/07 02:09:35;;;;;;;;;;;11.50;91.10;;;;;;5085111;28;19922;-70
2022/10/07 02:12:14;;;;;;;;;;;11.50;91.10;;;;;;5086020;28;19961;-70
2022/10/07 02:14:44;;;;;;;;;;;11.50;91.10;;;;;;5085962;28;19920;-70
2022/10/07 02:17:15;;;;;;;;;;;11.50;91.10;;;;;;5067665;28;19916;-70
2022/10/07 02:19:43;;;;;;;;;;;11.50;91.10;;;;;;5084192;28;20809;-70
2022/10/07 02:22:10;;;;;;;;;;;11.50;91.10;;;;;;5085376;28;19920;-71
2022/10/07 02:24:36;;;;;;;;;;;11.50;91.20;;;;;;5085969;28;20018;-70
2022/10/07 02:27:04;;;;;;;;;;;11.50;91.10;;;;;;5088608;28;19912;-70
2022/10/07 02:29:31;;;;;;;;;;;11.50;91.20;;;;;;5084525;28;19916;-70
2022/10/07 02:31:58;;;;;;;;;;;11.50;91.20;;;;;;5087369;28;19916;-70
2022/10/07 02:34:23;;;;;;;;;;;11.50;91.20;;;;;;5084670;28;19954;-70
2022/10/07 02:36:54;;;;;;;;;;;11.50;91.10;;;;;;5087943;28;19912;-70
2022/10/07 02:39:20;;;;;;;;;;;11.40;91.20;;;;;;5064050;28;19939;-70
2022/10/07 02:41:45;;;;;;;;;;;11.40;91.10;;;;;;5087932;28;20604;-70
2022/10/07 02:44:17;;;;;;;;;;;11.40;91.10;;;;;;5084945;28;19928;-70
2022/10/07 02:46:47;;;;;;;;;;;11.40;91.40;;;;;;5086901;28;19911;-70
2022/10/07 02:49:14;;;;;;;;;;;11.40;91.10;;;;;;5084703;28;20661;-70
2022/10/07 02:51:45;;;;;;;;;;;11.40;91.10;;;;;;5087933;28;20522;-70
2022/10/07 02:54:12;;;;;;;;;;;11.40;91.10;;;;;;5084588;28;19920;-70
2022/10/07 02:56:39;;;;;;;;;;;11.40;91.10;;;;;;5087926;28;20587;-70
2022/10/07 02:59:07;;;;;;;;;;;11.40;91.10;;;;;;5084670;28;19923;-70
2022/10/07 03:01:36;;;;;;;;;;;11.40;91.10;;;;;;5087425;28;19912;-70
2022/10/07 03:04:01;;;;;;;;;;;11.40;91.10;;;;;;5081545;28;19916;-70
2022/10/07 03:06:28;;;;;;;;;;;11.40;91.10;;;;;;5086924;28;19927;-70
2022/10/07 03:08:55;;;;;;;;;;;11.40;91.10;;;;;;5085439;28;19912;-71
2022/10/07 03:11:22;;;;;;;;;;;11.30;91.10;;;;;;5064662;28;19914;-70
2022/10/07 03:13:47;;;;;;;;;;;11.40;91.10;;;;;;5087573;28;19962;-70
2022/10/07 03:16:13;;;;;;;;;;;11.30;91.10;;;;;;5083543;28;19916;-70
2022/10/07 03:18:39;;;;;;;;;;;11.30;91.10;;;;;;5087610;28;20384;-70
2022/10/07 03:21:04;;;;;;;;;;;11.30;91.40;;;;;;5083727;28;19958;-70
2022/10/07 03:23:30;;;;;;;;;;;11.30;91.10;;;;;;5087111;28;19947;-70
2022/10/07 03:25:57;;;;;;;;;;;11.30;91.10;;;;;;5083998;28;19916;-70
2022/10/07 03:28:23;;;;;;;;;;;11.30;91.10;;;;;;5087278;28;19912;-70
2022/10/07 03:30:49;;;;;;;;;;;11.30;91.10;;;;;;5083354;28;20480;-70
2022/10/07 03:33:18;;;;;;;;;;;11.30;91.10;;;;;;5087133;28;19916;-70
2022/10/07 03:35:44;;;;;;;;;;;11.30;91.10;;;;;;5081545;28;19916;-70
2022/10/07 03:38:10;;;;;;;;;;;11.30;91.10;;;;;;5086013;28;19919;-70
2022/10/07 03:40:38;;;;;;;;;;;11.30;91.10;;;;;;5083475;28;19916;-70
2022/10/07 03:43:04;;;;;;;;;;;11.30;91.20;;;;;;5086815;28;19912;-70
2022/10/07 03:45:30;;;;;;;;;;;11.30;91.10;;;;;;5083062;28;19923;-70
2022/10/07 03:47:58;;;;;;;;;;;11.30;91.10;;;;;;5085321;28;19920;-70
2022/10/07 03:50:24;;;;;;;;;;;11.30;91.10;;;;;;5085865;28;19912;-70
2022/10/07 03:52:50;;;;;;;;;;;11.30;91.10;;;;;;5084697;28;19916;-70
2022/10/07 03:55:15;;;;;;;;;;;11.30;91.10;;;;;;5085288;28;19931;-71
2022/10/07 03:57:51;;;;;;;;;;;11.20;91.10;;;;;;5081498;28;21669;-70
2022/10/07 04:00:17;;;;;;;;;;;11.20;91.10;;;;;;5083275;28;19916;-70
2022/10/07 04:02:42;;;;;;;;;;;11.20;91.10;;;;;;5080593;28;19915;-70
2022/10/07 04:05:08;;;;;;;;;;;11.20;91.10;;;;;;5083511;28;19969;-70
2022/10/07 04:07:33;;;;;;;;;;;11.20;91.10;;;;;;5083670;28;19916;-70
2022/10/07 04:09:59;;;;;;;;;;;11.20;91.10;;;;;;5084684;28;20442;-70
2022/10/07 04:12:24;;;;;;;;;;;11.20;91.10;;;;;;5063634;28;19923;-70
2022/10/07 04:14:50;;;;;;;;;;;11.20;91.10;;;;;;5081502;28;20009;-70
2022/10/07 04:17:17;;;;;;;;;;;11.20;91.10;;;;;;5081489;28;19927;-70
2022/10/07 04:19:43;;;;;;;;;;;11.20;91.40;;;;;;5085794;28;20652;-70
2022/10/07 04:22:09;;;;;;;;;;;11.20;91.10;;;;;;5065281;28;19923;-70
2022/10/07 04:24:34;;;;;;;;;;;11.20;91.10;;;;;;5085200;28;19955;-70
2022/10/07 04:27:00;;;;;;;;;;;11.20;91.10;;;;;;5083939;28;19909;-70
2022/10/07 04:29:26;;;;;;;;;;;11.20;91.10;;;;;;5083368;28;19917;-70
2022/10/07 04:31:51;;;;;;;;;;;11.10;91.10;;;;;;5084429;28;19965;-70
2022/10/07 04:34:17;;;;;;;;;;;11.20;91.10;;;;;;5083652;28;19920;-71
2022/10/07 04:36:42;;;;;;;;;;;11.10;91.10;;;;;;5085525;28;20049;-70
2022/10/07 04:39:08;;;;;;;;;;;11.20;91.10;;;;;;5083463;28;19916;-70
2022/10/07 04:41:33;;;;;;;;;;;11.20;91.10;;;;;;5082903;28;19920;-70
2022/10/07 04:43:59;;;;;;;;;;;11.10;91.10;;;;;;5083603;28;19938;-70
2022/10/07 04:46:24;;;;;;;;;;;11.10;91.10;;;;;;5085123;28;19999;-70
2022/10/07 04:48:50;;;;;;;;;;;11.10;91.10;;;;;;5083387;28;20273;-70
2022/10/07 04:51:15;;;;;;;;;;;11.10;91.10;;;;;;5083632;28;19965;-70
2022/10/07 04:53:41;;;;;;;;;;;11.10;91.10;;;;;;5082811;28;20529;-70
2022/10/07 04:56:08;;;;;;;;;;;11.10;91.10;;;;;;5085409;28;19915;-70
2022/10/07 04:58:34;;;;;;;;;;;11.10;91.10;;;;;;5080729;28;19920;-70
2022/10/07 05:01:06;;;;;;;;;;;11.10;91.10;;;;;;5083953;28;19912;-70
2022/10/07 05:03:34;;;;;;;;;;;11.10;91.10;;;;;;5084952;28;20307;-70
2022/10/07 05:06:01;;;;;;;;;;;11.10;91.10;;;;;;5064440;28;19920;-70
2022/10/07 05:08:27;;;;;;;;;;;11.00;91.10;;;;;;5061148;28;20435;-70
2022/10/07 05:10:53;;;;;;;;;;;11.00;91.10;;;;;;5060584;28;20020;-70
2022/10/07 05:13:18;;;;;;;;;;;11.00;91.10;;;;;;5085532;28;20647;-70
2022/10/07 05:15:48;;;;;;;;;;;11.00;91.10;;;;;;5063490;28;19920;-70
2022/10/07 05:18:14;;;;;;;;;;;11.00;91.10;;;;;;5085944;28;19916;-70
2022/10/07 05:20:42;;;;;;;;;;;11.00;91.10;;;;;;5081380;28;19912;-70
2022/10/07 05:23:07;;;;;;;;;;;11.00;91.10;;;;;;5084232;28;19927;-70
2022/10/07 05:25:33;;;;;;;;;;;11.00;91.10;;;;;;5082054;28;19920;-70
2022/10/07 05:27:58;;;;;;;;;;;11.00;91.10;;;;;;5083783;28;19948;-70
2022/10/07 05:30:24;;;;;;;;;;;11.00;91.10;;;;;;5082006;28;20571;-70
2022/10/07 05:32:50;;;;;;;;;;;11.00;91.10;;;;;;5080137;28;19955;-70
2022/10/07 05:35:15;;;;;;;;;;;11.00;91.10;;;;;;5079944;28;20443;-70
2022/10/07 05:37:41;;;;;;;;;;;11.00;91.10;;;;;;5085312;28;19916;-70
2022/10/07 05:40:06;;;;;;;;;;;10.90;91.10;;;;;;5079494;28;19944;-70
2022/10/07 05:42:32;;;;;;;;;;;10.90;91.10;;;;;;5084883;28;20364;-70
2022/10/07 05:44:57;;;;;;;;;;;10.90;91.10;;;;;;5081751;28;19916;-70
2022/10/07 05:47:23;;;;;;;;;;;10.90;91.10;;;;;;5085593;28;19912;-70
2022/10/07 05:49:49;;;;;;;;;;;10.90;91.00;;;;;;5083515;28;19912;-70
2022/10/07 05:52:14;;;;;;;;;;;10.90;91.00;;;;;;5064087;28;20357;-70
2022/10/07 05:54:40;;;;;;;;;;;10.90;91.10;;;;;;5083921;28;19956;-70
2022/10/07 05:57:05;;;;;;;;;;;10.90;91.00;;;;;;5080982;28;20571;-70
2022/10/07 05:59:31;;;;;;;;;;;10.90;91.00;;;;;;5084578;28;19916;-70
2022/10/07 06:01:58;;;;;;;;;;;10.90;91.00;;;;;;5080281;28;19916;-70
2022/10/07 06:04:25;;;;;;;;;;;10.90;91.00;;;;;;5085011;28;19912;-70
2022/10/07 06:06:51;;;;;;;;;;;10.90;91.00;;;;;;5079088;28;20128;-70
2022/10/07 06:14:44;;;;;;;;;;;10.90;91.00;;;;;;5084187;28;20748;-70
2022/10/07 06:17:10;;;;;;;;;;;10.90;91.00;;;;;;5086246;28;19916;-70
2022/10/07 06:19:36;;;;;;;;;;;10.90;91.00;;;;;;5086773;28;19934;-70
2022/10/07 06:22:01;;;;;;;;;;;10.90;91.00;;;;;;5085449;28;19953;-70
2022/10/07 06:24:27;;;;;;;;;;;10.90;91.00;;;;;;5088114;28;19919;-70
2022/10/07 06:26:54;;;;;;;;;;;10.90;91.00;;;;;;5084586;28;19922;-70
2022/10/07 06:29:19;;;;;;;;;;;10.90;91.00;;;;;;5088147;28;19916;-70
2022/10/07 06:31:45;;;;;;;;;;;10.90;91.00;;;;;;5084707;28;20561;-70
2022/10/07 06:34:10;;;;;;;;;;;10.90;91.00;;;;;;5088271;28;19920;-70
2022/10/07 06:36:36;;;;;;;;;;;10.90;91.00;;;;;;5069604;28;20574;-70
2022/10/07 06:39:01;;;;;;;;;;;10.90;91.00;;;;;;5085341;28;19912;-70
2022/10/07 06:41:27;;;;;;;;;;;10.90;91.00;;;;;;5086731;28;19912;-70
2022/10/07 06:43:59;;;;;;;;;;;10.90;91.00;;;;;;5085818;28;19923;-70
2022/10/07 06:46:25;;;;;;;;;;;10.90;91.00;;;;;;5069330;28;20392;-70
2022/10/07 06:48:50;;;;;;;;;;;10.90;91.00;;;;;;5066264;28;19917;-70
2022/10/07 06:51:19;;;;;;;;;;;11.00;91.00;;;;;;5082589;28;19916;-70
2022/10/07 06:53:49;;;;;;;;;;;11.00;91.00;;;;;;5079842;28;19927;-70
2022/10/07 06:56:14;;;;;;;;;;;10.90;91.00;;;;;;5085065;28;19916;-70
2022/10/07 06:58:41;;;;;;;;;;;10.90;91.00;;;;;;5083986;28;19912;-70
2022/10/07 07:01:07;;;;;;;;;;;11.00;91.00;;;;;;5085379;28;19916;-70
2022/10/07 07:03:32;;;;;;;;;;;11.00;91.00;;;;;;5082927;28;19920;-70
2022/10/07 07:05:58;;;;;;;;;;;11.00;91.00;;;;;;5086883;28;20010;-71
2022/10/07 07:08:26;;;;;;;;;;;10.90;90.90;;;;;;5082612;28;19912;-70
2022/10/07 07:10:52;;;;;;;;;;;11.00;91.00;;;;;;5084790;28;19919;-70
2022/10/07 07:13:18;;;;;;;;;;;11.00;91.00;;;;;;5085843;28;20691;-70
2022/10/07 07:15:52;;;;;;;;;;;11.00;91.30;;;;;;5084609;28;19974;-70
2022/10/07 07:18:18;;;;;;;;;;;11.00;91.00;;;;;;5087315;28;19919;-70
2022/10/07 07:20:43;;;;;;;;;;;11.00;90.90;;;;;;5080928;28;19916;-70
2022/10/07 07:23:09;;;;;;;;;;;11.00;91.00;;;;;;5086401;28;19958;-70
2022/10/07 07:25:36;;;;;;;;;;;11.00;90.90;;;;;;5083558;28;20003;-70
2022/10/07 07:28:02;;;;;;;;;;;11.00;90.90;;;;;;5068724;28;19912;-70
2022/10/07 07:30:28;;;;;;;;;;;11.10;91.00;;;;;;5082949;28;20643;-70
2022/10/07 07:32:54;;;;;;;;;;;11.10;90.90;;;;;;5087206;28;19912;-70
2022/10/07 07:35:20;;;;;;;;;;;11.00;90.90;;;;;;5081245;28;20801;-70
2022/10/07 07:37:46;;;;;;;;;;;11.10;90.90;;;;;;5084050;28;19916;-71
2022/10/07 07:40:11;;;;;;;;;;;11.10;90.90;;;;;;5083340;28;20391;-70
2022/10/07 07:42:37;;;;;;;;;;;11.10;90.90;;;;;;5086592;28;19908;-70
2022/10/07 07:45:02;;;;;;;;;;;11.10;90.90;;;;;;5080746;28;19915;-70
2022/10/07 07:47:28;;;;;;;;;;;11.10;90.90;;;;;;5085320;28;19916;-70
2022/10/07 07:49:54;;;;;;;;;;;11.10;90.90;;;;;;5082147;28;19919;-71
2022/10/07 07:52:19;;;;;;;;;;;11.20;90.90;;;;;;5085495;28;19915;-71
2022/10/07 07:54:46;;;;;;;;;;;11.20;90.90;;;;;;5086311;28;20133;-70
2022/10/07 07:57:11;;;;;;;;;;;11.20;90.80;;;;;;5083547;28;19999;-71
2022/10/07 07:59:37;;;;;;;;;;;11.20;90.80;;;;;;5085526;28;20319;-70
2022/10/07 08:02:03;;;;;;;;;;;11.20;90.80;;;;;;5079821;28;20591;-70
2022/10/07 08:04:28;;;;;;;;;;;11.20;90.80;;;;;;5086312;28;19912;-70
2022/10/07 08:06:54;;;;;;;;;;;11.20;90.80;;;;;;5082659;28;19916;-70
2022/10/07 08:09:20;;;;;;;;;;;11.20;90.80;;;;;;5086625;28;19912;-70
2022/10/07 08:11:45;;;;;;;;;;;11.30;90.80;;;;;;5081285;28;19955;-71
2022/10/07 08:14:12;;;;;;;;;;;11.30;90.80;;;;;;5085896;28;20034;-70
2022/10/07 08:16:37;;;;;;;;;;;11.30;90.70;;;;;;5079280;28;20027;-70
2022/10/07 08:19:03;;;;;;;;;;;11.30;90.70;;;;;;5085045;28;19987;-71
2022/10/07 08:21:31;;;;;;;;;;;11.30;90.70;;;;;;5082553;28;19912;-70
2022/10/07 08:23:58;;;;;;;;;;;11.40;90.70;;;;;;5086201;28;20019;-70
2022/10/07 08:26:24;;;;;;;;;;;11.40;90.70;;;;;;5064676;28;19916;-70
2022/10/07 08:28:49;;;;;;;;;;;11.40;90.70;;;;;;5085396;28;20368;-70
2022/10/07 08:31:16;;;;;;;;;;;11.40;90.70;;;;;;5079581;28;19920;-70
2022/10/07 08:33:43;;;;;;;;;;;11.40;90.70;;;;;;5084166;28;20307;-71
2022/10/07 08:36:28;;;;;;;;;;;11.50;90.70;;;;;;5083352;28;19919;-70
2022/10/07 08:38:54;;;;;;;;;;;11.50;90.70;;;;;;5083902;28;19916;-70
2022/10/07 08:41:38;;;;;;;;;;;11.50;90.60;;;;;;5083068;28;19935;-70
2022/10/07 08:44:16;;;;;;;;;;;11.60;90.60;;;;;;5081952;28;19916;-71
2022/10/07 08:47:01;;;;;;;;;;;11.60;90.60;;;;;;5082145;28;19912;-70
2022/10/07 08:49:30;;;;;;;;;;;11.70;90.70;;;;;;5085375;28;19961;-70
2022/10/07 08:52:00;;;;;;;;;;;11.70;90.70;;;;;;5084194;28;19912;-71
2022/10/07 08:54:29;;;;;;;;;;;11.70;90.60;;;;;;5082883;28;19948;-71
2022/10/07 08:56:57;;;;;;;;;;;11.80;90.60;;;;;;5082409;28;19931;-71
2022/10/07 08:59:33;;;;;;;;;;;11.80;90.50;;;;;;5082633;28;20541;-70
2022/10/07 09:02:17;;;;;;;;;;;11.90;90.50;;;;;;5082555;28;19958;-70
2022/10/07 09:04:55;;;;;;;;;;;11.90;90.70;;;;;;5081824;28;19916;-71
2022/10/07 09:07:27;;;;;;;;;;;11.90;90.50;;;;;;5085230;28;19920;-70
2022/10/07 09:10:07;;;;;;;;;;;11.90;90.40;;;;;;5081846;28;19989;-71
2022/10/07 09:12:33;;;;;;;;;;;11.90;90.40;;;;;;5084537;28;19981;-71
2022/10/07 09:14:59;;;;;;;;;;;12.00;90.50;;;;;;5082121;28;20679;-70
2022/10/07 09:17:39;;;;;;;;;;;12.00;90.40;;;;;;5082356;28;19920;-71
2022/10/07 09:20:10;;;;;;;;;;;12.10;90.40;;;;;;5081562;28;19940;-70
2022/10/07 09:22:38;;;;;;;;;;;12.10;90.60;;;;;;5083892;28;19912;-70
2022/10/07 09:25:10;;;;;;;;;;;12.10;90.50;;;;;;5081800;28;19916;-70
2022/10/07 09:27:35;;;;;;;;;;;12.10;90.30;;;;;;5083155;28;19950;-70
2022/10/07 09:30:01;;;;;;;;;;;12.20;90.30;;;;;;5080362;28;20358;-70
2022/10/07 09:32:27;;;;;;;;;;;12.20;90.30;;;;;;5083525;28;19969;-70
2022/10/07 09:34:53;;;;;;;;;;;12.30;90.30;;;;;;5082540;28;19920;-70
2022/10/07 09:37:19;;;;;;;;;;;12.30;90.30;;;;;;5084419;28;19912;-71
2022/10/07 09:39:46;;;;;;;;;;;12.40;90.20;;;;;;5077449;28;19945;-71
2022/10/07 09:42:24;;;;;;;;;;;12.40;90.10;;;;;;5084055;28;20431;-71
2022/10/07 09:44:53;;;;;;;;;;;12.40;90.20;;;;;;5079141;28;19915;-70
2022/10/07 09:47:21;;;;;;;;;;;12.40;90.10;;;;;;5084001;28;20193;-71
2022/10/07 09:49:51;;;;;;;;;;;12.40;90.00;;;;;;5082714;28;19927;-70
2022/10/07 09:52:16;;;;;;;;;;;12.50;90.00;;;;;;5086511;28;19969;-71
2022/10/07 09:54:43;;;;;;;;;;;12.50;90.00;;;;;;5086110;28;19916;-70
2022/10/07 09:57:21;;;;;;;;;;;12.60;90.00;;;;;;5087526;28;19912;-70
2022/10/07 09:59:46;;;;;;;;;;;12.60;89.90;;;;;;5082177;28;19951;-70
2022/10/07 10:02:12;;;;;;;;;;;12.70;89.90;;;;;;5084915;28;19955;-70
2022/10/07 10:04:38;;;;;;;;;;;12.70;89.80;;;;;;5088593;28;20378;-70
2022/10/07 10:07:06;;;;;;;;;;;12.70;89.70;;;;;;5085095;28;19924;-70
2022/10/07 10:09:32;;;;;;;;;;;12.80;89.50;;;;;;5088376;28;20002;-70
2022/10/07 10:12:00;;;;;;;;;;;12.80;89.90;;;;;;5082394;28;19916;-71
2022/10/07 10:14:33;;;;;;;;;;;12.90;89.40;;;;;;5087824;28;20467;-71
2022/10/07 10:16:59;;;;;;;;;;;12.90;89.40;;;;;;5081095;28;19923;-70
2022/10/07 10:19:26;;;;;;;;;;;12.90;89.40;;;;;;5087100;28;20396;-70
2022/10/07 10:21:53;;;;;;;;;;;13.00;89.30;;;;;;5084249;28;19923;-70
2022/10/07 10:26:24;;;;;;;;;;;13.00;89.10;;;;;;5069496;28;19912;-70
2022/10/07 10:27:11;;;;;;;;;;;13.10;89.20;;;;;;5085149;28;19931;-70
2022/10/07 10:29:59;;;;;;;;;;;13.10;89.20;;;;;;5085714;28;19989;-71
2022/10/07 10:32:25;;;;;;;;;;;13.20;88.90;;;;;;5084345;28;19923;-71
2022/10/07 10:35:06;;;;;;;;;;;13.20;88.90;;;;;;5087492;28;19920;-71
2022/10/07 10:37:34;;;;;;;;;;;13.20;88.90;;;;;;5083431;28;19912;-70
2022/10/07 10:40:07;;;;;;;;;;;13.30;88.80;;;;;;5085375;28;19955;-70
2022/10/07 10:42:43;;;;;;;;;;;13.30;88.60;;;;;;5084821;28;20010;-70
2022/10/07 10:45:17;;;;;;;;;;;13.40;88.60;;;;;;5069983;28;20678;-70
2022/10/07 10:47:51;;;;;;;;;;;13.40;88.50;;;;;;5081639;28;20041;-70
2022/10/07 10:50:34;;;;;;;;;;;13.50;88.70;;;;;;5085381;28;19954;-70
2022/10/07 10:53:03;;;;;;;;;;;13.50;88.60;;;;;;5064344;28;19920;-70
2022/10/07 10:55:28;;;;;;;;;;;13.50;88.50;;;;;;5086321;28;20344;-70
2022/10/07 10:58:03;;;;;;;;;;;13.60;89.10;;;;;;5081377;28;19916;-70
2022/10/07 11:00:54;;;;;;;;;;;13.60;88.70;;;;;;5081127;28;19912;-70
2022/10/07 11:03:23;;;;;;;;;;;13.60;88.40;;;;;;5077816;28;19978;-71
2022/10/07 11:05:49;;;;;;;;;;;13.70;88.30;;;;;;5087352;28;19935;-70
2022/10/07 11:08:17;;;;;;;;;;;13.70;88.40;;;;;;5082633;28;19921;-70
2022/10/07 11:10:47;;;;;;;;;;;13.80;88.40;;;;;;5086774;28;20373;-70
2022/10/07 11:13:13;;;;;;;;;;;13.80;88.30;;;;;;5080927;28;20526;-70
2022/10/07 11:15:43;;;;;;;;;;;13.90;88.40;;;;;;5086430;28;19912;-70
2022/10/07 11:18:20;;;;;;;;;;;13.90;88.20;;;;;;5084477;28;20014;-71
2022/10/07 11:20:47;;;;;;;;;;;14.00;88.20;;;;;;5086940;28;19998;-70
2022/10/07 11:23:22;;;;;;;;;;;14.00;88.20;;;;;;5080100;28;19930;-71
2022/10/07 11:25:56;;;;;;;;;;;14.10;88.30;;;;;;5064986;28;19916;-70
2022/10/07 11:28:24;;;;;;;;;;;14.20;88.10;;;;;;5084317;28;19953;-71
2022/10/07 11:31:07;;;;;;;;;;;14.20;88.00;;;;;;5078914;28;19915;-70
2022/10/07 11:33:50;;;;;;;;;;;14.30;87.90;;;;;;5077797;28;19921;-71
2022/10/07 11:36:20;;;;;;;;;;;14.40;87.90;;;;;;5085584;28;20007;-71
2022/10/07 11:38:46;;;;;;;;;;;14.50;88.00;;;;;;5082654;28;19916;-71
2022/10/07 11:41:12;;;;;;;;;;;14.60;87.60;;;;;;5082901;28;20302;-70
2022/10/07 11:43:37;;;;;;;;;;;14.60;87.60;;;;;;5085147;28;19912;-70
2022/10/07 11:46:06;;;;;;;;;;;14.70;87.40;;;;;;5066164;28;20651;-71
2022/10/07 11:48:39;;;;;;;;;;;14.70;87.30;;;;;;5086837;28;19921;-71
2022/10/07 11:51:06;;;;;;;;;;;14.80;87.50;;;;;;5082989;28;19926;-71
2022/10/07 11:53:35;;;;;;;;;;;14.80;87.30;;;;;;5086832;28;19920;-71
2022/10/07 11:56:03;;;;;;;;;;;14.90;87.30;;;;;;5083787;28;19916;-71
2022/10/07 11:58:33;;;;;;;;;;;15.00;87.60;;;;;;5086725;28;19918;-71
2022/10/07 12:01:18;;;;;;;;;;;15.00;87.60;;;;;;5083636;28;20323;-70
2022/10/07 12:03:45;;;;;;;;;;;15.10;87.40;;;;;;5043017;28;19916;-71
2022/10/07 12:06:11;;;;;;;;;;;15.20;87.40;;;;;;5082762;28;19920;-71
2022/10/07 12:08:38;;;;;;;;;;;15.20;87.50;;;;;;5085608;28;19912;-70
2022/10/07 12:11:15;;;;;;;;;;;15.30;87.70;;;;;;5082232;28;20452;-71
2022/10/07 12:13:41;;;;;;;;;;;15.30;87.50;;;;;;5083963;28;19920;-71
2022/10/07 12:16:25;;;;;;;;;;;15.40;87.60;;;;;;5083157;28;19908;-71
2022/10/07 12:19:06;;;;;;;;;;;15.50;87.00;;;;;;5065475;28;19916;-71
2022/10/07 12:21:50;;;;;;;;;;;15.60;87.40;;;;;;5080329;28;20337;-71
2022/10/07 12:24:16;;;;;;;;;;;15.60;87.40;;;;;;5084379;28;20027;-71
2022/10/07 12:26:45;;;;;;;;;;;15.70;87.70;;;;;;5081968;28;20014;-71
2022/10/07 12:29:17;;;;;;;;;;;15.70;87.70;;;;;;5082047;28;19908;-71
2022/10/07 12:31:45;;;;;;;;;;;15.70;87.70;;;;;;5076136;28;19924;-71
2022/10/07 12:34:18;;;;;;;;;;;15.80;87.70;;;;;;5086150;28;20338;-70
2022/10/07 12:36:43;;;;;;;;;;;15.80;87.50;;;;;;5083051;28;19916;-71
2022/10/07 12:39:10;;;;;;;;;;;15.90;88.00;;;;;;5084169;28;20520;-71
2022/10/07 12:41:37;;;;;;;;;;;15.90;87.60;;;;;;5081810;28;19949;-71
2022/10/07 12:44:12;;;;;;;;;;;15.90;87.10;;;;;;5085926;28;20310;-71
2022/10/07 12:46:53;;;;;;;;;;;16.00;88.00;;;;;;5082958;28;19951;-70
2022/10/07 12:49:24;;;;;;;;;;;16.00;87.90;;;;;;5083683;28;19912;-71
2022/10/07 12:51:52;;;;;;;;;;;16.10;87.50;;;;;;5080281;28;20471;-71
2022/10/07 12:54:19;;;;;;;;;;;16.10;88.10;;;;;;5081410;28;19924;-71
2022/10/07 12:56:45;;;;;;;;;;;16.20;87.90;;;;;;5079468;28;19940;-71
2022/10/07 13:02:23;;;;;;;;;;;16.20;88.30;;;;;;5081992;28;19919;-71
2022/10/07 13:05:07;;;;;;;;;;;16.30;88.20;;;;;;5081419;28;20277;-71
2022/10/07 13:07:42;;;;;;;;;;;16.30;88.60;;;;;;5082825;28;19916;-71
2022/10/07 13:10:27;;;;;;;;;;;16.40;87.60;;;;;;5084499;28;20048;-71
2022/10/07 13:12:57;;;;;;;;;;;16.40;88.30;;;;;;5078699;28;19916;-71
2022/10/07 13:15:22;;;;;;;;;;;16.40;88.00;;;;;;5080948;28;19916;-71
2022/10/07 13:17:51;;;;;;;;;;;16.50;88.30;;;;;;5082567;28;19916;-71
2022/10/07 13:20:16;;;;;;;;;;;16.50;87.90;;;;;;5085492;28;19987;-71
2022/10/07 13:22:46;;;;;;;;;;;16.60;88.30;;;;;;5079214;28;20011;-71
2022/10/07 13:25:12;;;;;;;;;;;16.60;87.60;;;;;;5084474;28;19950;-71
2022/10/07 13:27:40;;;;;;;;;;;16.60;87.50;;;;;;5083507;28;19914;-71
2022/10/07 13:30:18;;;;;;;;;;;16.60;88.30;;;;;;5083974;28;20018;-71
2022/10/07 13:32:44;;;;;;;;;;;16.60;88.40;;;;;;5083153;28;19922;-71
2022/10/07 13:35:28;;;;;;;;;;;16.70;88.80;;;;;;5082520;28;20043;-71
2022/10/07 13:37:53;;;;;;;;;;;16.70;88.80;;;;;;5084838;28;19955;-71
2022/10/07 13:40:34;;;;;;;;;;;16.70;88.60;;;;;;5081590;28;19970;-71
2022/10/07 13:43:01;;;;;;;;;;;16.70;88.40;;;;;;5082508;28;19916;-71
2022/10/07 13:45:27;;;;;;;;;;;16.70;88.30;;;;;;5082450;28;19927;-71
2022/10/07 13:47:53;;;;;;;;;;;16.80;88.50;;;;;;5084421;28;19908;-71
2022/10/07 13:50:26;;;;;;;;;;;16.80;88.70;;;;;;5064056;28;20031;-71
2022/10/07 13:52:54;;;;;;;;;;;16.80;89.10;;;;;;5084462;28;19919;-71
2022/10/07 13:55:33;;;;;;;;;;;16.80;88.90;;;;;;5063984;28;19958;-71
2022/10/07 13:58:01;;;;;;;;;;;16.80;88.20;;;;;;5084468;28;19958;-71
2022/10/07 14:00:27;;;;;;;;;;;16.90;90.00;;;;;;5080236;28;20756;-71
2022/10/07 14:02:53;;;;;;;;;;;16.90;88.50;;;;;;5081596;28;19916;-70
2022/10/07 14:05:23;;;;;;;;;;;16.90;89.40;;;;;;5078012;28;20623;-71
2022/10/07 14:07:52;;;;;;;;;;;16.90;88.80;;;;;;5060578;28;20272;-71
2022/10/07 14:10:18;;;;;;;;;;;16.90;89.20;;;;;;5081734;28;19916;-71
2022/10/07 14:12:48;;;;;;;;;;;16.90;89.50;;;;;;5081495;28;19961;-71
2022/10/07 14:15:18;;;;;;;;;;;16.90;89.80;;;;;;5077450;28;19954;-70
2022/10/07 14:17:43;;;;;;;;;;;16.90;90.30;;;;;;5084539;28;20007;-71
2022/10/07 14:20:28;;;;;;;;;;;16.90;90.20;;;;;;5079129;28;20003;-71
2022/10/07 14:22:57;;;;;;;;;;;16.90;89.90;;;;;;5080440;28;20288;-71
2022/10/07 14:25:27;;;;;;;;;;;16.90;90.30;;;;;;5082107;28;19928;-71
2022/10/07 14:27:56;;;;;;;;;;;16.90;90.10;;;;;;5062552;28;19923;-71
2022/10/07 14:30:25;;;;;;;;;;;16.90;89.90;;;;;;5078533;28;20006;-70
2022/10/07 14:36:20;;;;;;;;;;;16.90;90.20;;;;;;5081524;28;19926;-71